Main page
METAR-TAF:

Airports :

Waddington, England

RAF Waddington

latitude: 53-10N, longitude: 000-31W, elevation: 68 m

Current weather observation

The report was made 20 minutes ago, at 19:50 UTC
Wind 11 kt from the North/Northwest
Temperature 13°C
Humidity 72%
Pressure 1018 hPa
Visibility 10 km or more
no clouds below 1500 m and no cumulonimbus

METAR: EGXW 301950Z 34011KT CAVOK 13/08 Q1018 BLU

Time: 21:10 (20:10 UTC)

Forecast

The report was made 5 hours and 52 minutes ago, at 14:18 UTC
Forecast valid from 30 at 15 UTC to 30 at 20 UTC
Wind 15 kt from the North with gusts up to 25 kt
Visibility 10 km or more
Scattered clouds at a height of 3000 ft

TAF: EGXW 301418Z 3015/3020 36015G25KT 9999 SCT030

METAR-TAF

Weather observations and forecasts of more than 4000 airports (METAR and TAF reports).

The available stations are represented by yellow and red dots on the map.

Hover mouse over dot to see the name of the station.

Then click to see weather observations and forecasts.

To change the map : click on the green buttons with a black cross to zoom in, on the green button with a dash to zoom out, or on the green arrows for adjacent maps.


METAR-TAF: